Terminal Aerodrome Forecast
Issued by NWS

Home | Current Version | Previous Version | Graphics & Text | Print | Product List | Glossary On
Versions: 1 2 3 4 5 6 7 8 9 10 11 12 13 14 15 16 17 18 19 20 21 22 23 24 25 26 27 28 29 30
000
FTUS43 KGRB 180733 AAA
TAFATW
TAF AMD
KATW 180733Z 1808/1906 25006KT 1/4SM FG VV002
      TEMPO 1808/1812 1 1/2SM BR OVC005
     FM181200 23005KT 2SM BR OVC006
     FM181800 22010KT P6SM SCT008
     FM182300 22006KT P6SM SKC=

USA.gov is the U.S. government's official web portal to all federal, state and local government web resources and services.